createdAt,value
2022-08-01T00:01:28.380Z,21.32
2022-08-01T00:16:30.019Z,21.19
2022-08-01T00:31:31.575Z,20.97
2022-08-01T00:46:33.515Z,21.61
2022-08-01T01:01:39.199Z,21.35
2022-08-01T01:16:42.264Z,20.56
2022-08-01T01:31:56.952Z,20.65
2022-08-01T01:46:59.528Z,20.91
2022-08-01T02:02:08.828Z,21.28
2022-08-01T02:17:12.584Z,20.77
2022-08-01T02:32:20.936Z,20.87
2022-08-01T02:47:24.141Z,21.07
2022-08-01T03:02:26.145Z,20.94
2022-08-01T03:17:29.374Z,21.34
2022-08-01T03:32:31.337Z,21.24
2022-08-01T03:47:40.869Z,22.59
2022-08-01T04:02:47.082Z,23.09
2022-08-01T04:17:49.252Z,22.98
2022-08-01T04:32:53.319Z,24.73
2022-08-01T04:47:55.377Z,25.26
2022-08-01T05:02:56.908Z,26.64
2022-08-01T05:17:58.769Z,27.93
2022-08-01T05:33:00.470Z,27.81
2022-08-01T05:48:02.036Z,28.20
2022-08-01T06:03:03.628Z,28.78
2022-08-01T06:18:06.117Z,30.17
2022-08-01T06:33:07.697Z,30.02
2022-08-01T06:48:09.359Z,30.33
2022-08-01T07:03:10.945Z,28.45
2022-08-01T07:18:12.706Z,30.90
2022-08-01T07:33:14.344Z,30.01
2022-08-01T07:48:15.909Z,29.67
2022-08-01T08:03:17.547Z,30.34
2022-08-01T08:18:19.267Z,29.84
2022-08-01T08:33:20.897Z,30.34
2022-08-01T08:48:27.580Z,29.39
2022-08-01T09:03:29.596Z,30.10
2022-08-01T09:18:35.454Z,29.92
2022-08-01T09:33:52.202Z,29.00
2022-08-01T09:48:56.597Z,28.99
2022-08-01T10:04:07.260Z,30.69
2022-08-01T10:19:15.332Z,30.40
2022-08-01T10:34:19.600Z,31.93
2022-08-01T10:49:28.032Z,32.16
2022-08-01T11:04:45.184Z,31.16
2022-08-01T11:20:05.090Z,30.36
2022-08-01T11:35:06.762Z,29.79
2022-08-01T11:50:28.463Z,29.94
2022-08-01T12:05:32.334Z,29.64
2022-08-01T12:20:35.800Z,29.87
2022-08-01T12:35:38.709Z,28.51
2022-08-01T12:50:41.897Z,28.54
2022-08-01T13:05:44.973Z,28.18
2022-08-01T13:20:50.536Z,29.79
2022-08-01T13:35:55.622Z,30.10
2022-08-01T13:51:13.488Z,29.74
2022-08-01T14:06:19.796Z,28.54
2022-08-01T14:21:21.428Z,28.40
2022-08-01T14:36:29.495Z,28.99
2022-08-01T14:51:35.504Z,29.02
2022-08-01T15:06:37.125Z,29.23
2022-08-01T15:21:42.314Z,28.25
2022-08-01T15:36:44.407Z,29.50
2022-08-01T15:51:46.491Z,28.45
2022-08-01T16:06:48.378Z,27.99
2022-08-01T16:21:50.076Z,27.30
2022-08-01T16:36:52.781Z,27.21
2022-08-01T16:51:54.341Z,27.16
2022-08-01T17:06:56.021Z,26.36
2022-08-01T17:21:57.602Z,26.40
2022-08-01T17:36:59.134Z,25.90
2022-08-01T17:52:00.673Z,25.46
2022-08-01T18:07:02.265Z,25.39
2022-08-01T18:22:05.859Z,24.89
2022-08-01T18:37:27.277Z,24.68
2022-08-01T18:52:32.348Z,24.63
2022-08-01T19:08:05.106Z,24.37
2022-08-01T19:22:55.971Z,24.11
2022-08-01T19:37:57.831Z,23.49
2022-08-01T19:53:02.317Z,23.10
2022-08-01T20:08:05.814Z,22.72
2022-08-01T20:23:09.543Z,22.67
2022-08-01T20:38:12.408Z,22.38
2022-08-01T20:53:16.039Z,21.79
2022-08-01T21:08:21.699Z,22.00
2022-08-01T21:23:43.573Z,21.58
2022-08-01T21:38:46.264Z,21.87
2022-08-01T21:54:04.075Z,21.89
2022-08-01T22:16:09.830Z,22.14
2022-08-01T22:31:12.884Z,21.96
2022-08-01T22:46:29.534Z,22.54
2022-08-01T23:01:33.093Z,22.27
2022-08-01T23:16:35.484Z,22.32
2022-08-01T23:32:00.599Z,21.98
2022-08-01T23:46:58.652Z,21.82
